Terminal Aerodrome Forecast
Issued by NWS

Home | Current Version | Previous Version | Text Only | Print | Product List | Glossary On
Versions: 1 2 3 4 5 6 7 8 9 10 11 12 13 14
000
FTUS44 KLIX 170520
TAFGPT
TAF
KGPT 170520Z 1706/1806 02009KT P6SM SKC
     FM170900 04006KT P6SM SKC
     FM171500 04012G21KT P6SM SKC
     FM172300 05005KT P6SM SKC=

USA.gov is the U.S. government's official web portal to all federal, state and local government web resources and services.